Time;durP1;ratioP1;P1;durP2;ratioP2;P2;SDS_P1;SDS_P2;PMS_P1;PMS_P2;Temp;Humidity;BMP_temperature;BMP_pressure;BME280_temperature;BME280_humidity;BME280_pressure;Samples;Min_cycle;Max_cycle;Signal;HPM_P1;HPM_P2
2023/02/15 00:00:03;;;;;;;42.10;26.87;;;;;;;;;;5051039;28;20235;-75
2023/02/15 00:02:30;;;;;;;41.03;26.53;;;;;;;;;;5051179;28;20586;-76
2023/02/15 00:04:58;;;;;;;42.30;27.20;;;;;;;;;;5050979;28;20223;-75
2023/02/15 00:07:25;;;;;;;41.43;26.70;;;;;;;;;;5046860;28;20283;-75
2023/02/15 00:09:53;;;;;;;41.30;26.50;;;;;;;;;;5031016;28;20747;-75
2023/02/15 00:12:20;;;;;;;40.80;25.33;;;;;;;;;;5042538;28;20639;-76
2023/02/15 00:14:47;;;;;;;41.63;26.63;;;;;;;;;;5050290;28;20262;-75
2023/02/15 00:17:14;;;;;;;41.90;27.33;;;;;;;;;;5050868;28;20195;-76
2023/02/15 00:19:41;;;;;;;41.77;27.13;;;;;;;;;;5050577;28;20315;-76
2023/02/15 00:22:10;;;;;;;42.87;27.03;;;;;;;;;;5051565;28;20260;-76
2023/02/15 00:24:37;;;;;;;43.93;28.50;;;;;;;;;;5050894;28;20287;-76
2023/02/15 00:27:04;;;;;;;43.03;26.47;;;;;;;;;;5031633;28;20287;-75
2023/02/15 00:29:32;;;;;;;41.80;26.37;;;;;;;;;;5030615;28;20578;-76
2023/02/15 00:31:59;;;;;;;42.10;27.00;;;;;;;;;;5050759;28;20291;-76
2023/02/15 00:34:27;;;;;;;44.67;27.37;;;;;;;;;;5050908;28;20289;-76
2023/02/15 00:36:54;;;;;;;42.53;26.73;;;;;;;;;;5051301;28;20281;-75
2023/02/15 00:39:23;;;;;;;39.90;26.77;;;;;;;;;;5050520;28;20717;-76
2023/02/15 00:41:50;;;;;;;41.30;26.70;;;;;;;;;;5054945;28;20223;-76
2023/02/15 00:44:18;;;;;;;43.17;26.97;;;;;;;;;;5057514;28;20312;-75
2023/02/15 00:46:45;;;;;;;43.70;26.93;;;;;;;;;;5057504;28;20203;-75
2023/02/15 00:49:12;;;;;;;41.43;26.67;;;;;;;;;;5057170;28;20294;-75
2023/02/15 00:51:40;;;;;;;41.17;25.73;;;;;;;;;;5057488;28;20661;-75
2023/02/15 00:54:07;;;;;;;43.23;27.13;;;;;;;;;;5057270;28;20212;-76
2023/02/15 00:56:36;;;;;;;43.50;26.97;;;;;;;;;;5057218;28;20283;-75
2023/02/15 00:59:03;;;;;;;38.97;25.50;;;;;;;;;;5057407;28;20290;-74
2023/02/15 01:01:30;;;;;;;40.33;26.13;;;;;;;;;;5057490;28;20243;-75
2023/02/15 01:03:57;;;;;;;42.57;26.03;;;;;;;;;;5057031;28;20291;-76
2023/02/15 01:06:25;;;;;;;39.67;26.07;;;;;;;;;;5057031;28;20624;-76
2023/02/15 01:08:52;;;;;;;42.80;27.23;;;;;;;;;;5056858;28;20291;-76
2023/02/15 01:11:21;;;;;;;44.87;27.83;;;;;;;;;;5040391;28;20284;-75
2023/02/15 01:13:53;;;;;;;41.33;26.47;;;;;;;;;;5057218;28;20669;-77
2023/02/15 01:16:21;;;;;;;46.20;27.77;;;;;;;;;;5058030;28;20221;-75
2023/02/15 01:18:48;;;;;;;42.70;27.13;;;;;;;;;;5057038;28;20284;-76
2023/02/15 01:21:16;;;;;;;42.50;27.33;;;;;;;;;;5056906;28;20266;-76
2023/02/15 01:23:44;;;;;;;40.97;27.90;;;;;;;;;;5057162;28;20309;-75
2023/02/15 01:26:11;;;;;;;43.33;26.73;;;;;;;;;;5057783;28;20288;-75
2023/02/15 01:28:38;;;;;;;43.63;27.37;;;;;;;;;;5056896;28;20289;-75
2023/02/15 01:31:08;;;;;;;43.57;26.67;;;;;;;;;;5057090;28;20227;-76
2023/02/15 01:33:36;;;;;;;41.03;25.73;;;;;;;;;;5057489;28;20231;-75
2023/02/15 01:36:03;;;;;;;40.50;26.07;;;;;;;;;;5056915;28;20197;-76
2023/02/15 01:38:30;;;;;;;39.97;26.30;;;;;;;;;;5057657;28;20286;-76
2023/02/15 01:41:19;;;;;;;43.50;27.07;;;;;;;;;;5057218;28;20666;-76
2023/02/15 01:43:46;;;;;;;42.57;25.83;;;;;;;;;;5057078;28;20196;-76
2023/02/15 01:46:17;;;;;;;40.47;26.03;;;;;;;;;;5057012;28;20196;-75
2023/02/15 01:48:46;;;;;;;39.40;25.77;;;;;;;;;;5056994;28;20191;-76
2023/02/15 01:51:13;;;;;;;44.17;26.10;;;;;;;;;;5057525;28;20258;-76
2023/02/15 01:53:43;;;;;;;41.43;26.43;;;;;;;;;;5054137;28;20208;-75
2023/02/15 01:56:12;;;;;;;40.63;26.23;;;;;;;;;;5053082;28;20632;-75
2023/02/15 01:58:40;;;;;;;43.60;26.73;;;;;;;;;;5053442;28;20235;-75
2023/02/15 02:01:09;;;;;;;42.43;25.80;;;;;;;;;;5053771;28;20323;-76
2023/02/15 02:03:42;;;;;;;39.93;26.13;;;;;;;;;;5037626;28;20289;-76
2023/02/15 02:06:09;;;;;;;39.30;26.13;;;;;;;;;;5033916;28;20204;-75
2023/02/15 02:08:36;;;;;;;39.87;25.43;;;;;;;;;;5033701;28;20252;-76
2023/02/15 02:11:04;;;;;;;40.93;25.53;;;;;;;;;;5033862;28;20240;-76
2023/02/15 02:13:31;;;;;;;38.47;25.00;;;;;;;;;;5053396;28;20315;-76
2023/02/15 02:16:02;;;;;;;44.30;25.83;;;;;;;;;;5053751;28;20291;-76
2023/02/15 02:18:37;;;;;;;40.37;25.50;;;;;;;;;;5040765;28;20277;-76
2023/02/15 02:21:16;;;;;;;43.10;26.60;;;;;;;;;;5035791;28;20290;-75
2023/02/15 02:23:58;;;;;;;42.43;26.37;;;;;;;;;;5047893;28;20250;-75
2023/02/15 02:26:56;;;;;;;40.77;25.83;;;;;;;;;;5053009;28;20299;-75
2023/02/15 02:29:50;;;;;;;42.17;25.17;;;;;;;;;;5053658;28;20279;-76
2023/02/15 02:32:41;;;;;;;42.60;26.00;;;;;;;;;;4971839;28;20223;-77
2023/02/15 02:35:12;;;;;;;41.23;26.43;;;;;;;;;;4967013;28;20743;-75
2023/02/15 02:37:47;;;;;;;40.57;25.10;;;;;;;;;;4971759;28;20293;-75
2023/02/15 02:40:18;;;;;;;41.93;25.27;;;;;;;;;;4971149;28;20250;-76
2023/02/15 02:42:49;;;;;;;39.17;24.80;;;;;;;;;;4972240;28;20236;-75
2023/02/15 02:45:18;;;;;;;40.83;25.30;;;;;;;;;;4971858;28;20624;-75
2023/02/15 02:47:47;;;;;;;42.27;25.27;;;;;;;;;;4952604;28;20290;-75
2023/02/15 02:50:17;;;;;;;38.30;24.87;;;;;;;;;;4952732;29;20631;-75
2023/02/15 02:52:45;;;;;;;36.90;23.63;;;;;;;;;;4952338;29;20224;-75
2023/02/15 02:55:15;;;;;;;40.80;25.47;;;;;;;;;;4952285;29;20714;-76
2023/02/15 02:57:44;;;;;;;42.87;26.27;;;;;;;;;;4953672;28;20243;-75
2023/02/15 03:00:13;;;;;;;41.87;24.80;;;;;;;;;;4971507;28;20230;-75
2023/02/15 03:02:43;;;;;;;40.10;24.30;;;;;;;;;;4971549;28;20213;-75
2023/02/15 03:05:13;;;;;;;41.60;24.27;;;;;;;;;;4971238;28;20650;-76
2023/02/15 03:07:42;;;;;;;38.80;25.53;;;;;;;;;;4998271;28;20655;-76
2023/02/15 03:10:11;;;;;;;39.30;24.97;;;;;;;;;;5052497;28;20303;-76
2023/02/15 03:12:39;;;;;;;36.43;24.67;;;;;;;;;;5052137;28;20295;-75
2023/02/15 03:15:08;;;;;;;39.03;24.80;;;;;;;;;;5052394;28;20200;-75
2023/02/15 03:17:37;;;;;;;39.10;25.23;;;;;;;;;;5051808;28;20287;-75
2023/02/15 03:20:06;;;;;;;36.40;23.63;;;;;;;;;;5052206;28;20314;-76
2023/02/15 03:22:35;;;;;;;38.73;24.97;;;;;;;;;;5052398;28;20228;-76
2023/02/15 03:25:07;;;;;;;42.67;25.00;;;;;;;;;;5052248;28;20222;-75
2023/02/15 03:27:37;;;;;;;42.47;26.27;;;;;;;;;;5052066;28;20232;-75
2023/02/15 03:30:05;;;;;;;39.57;24.87;;;;;;;;;;5052584;28;20641;-76
2023/02/15 03:32:34;;;;;;;40.80;25.10;;;;;;;;;;5051931;28;20202;-75
2023/02/15 03:35:01;;;;;;;39.37;24.57;;;;;;;;;;5051913;28;20291;-76
2023/02/15 03:37:30;;;;;;;39.77;24.47;;;;;;;;;;5051542;28;20303;-75
2023/02/15 03:41:08;;;;;;;39.30;25.60;;;;;;;;;;5051643;28;20347;-74
2023/02/15 03:42:50;;;;;;;37.30;23.87;;;;;;;;;;5051639;28;20207;-75
2023/02/15 03:45:19;;;;;;;39.40;24.10;;;;;;;;;;5047396;28;20228;-75
2023/02/15 03:47:48;;;;;;;41.33;24.50;;;;;;;;;;5040581;28;20236;-76
2023/02/15 03:53:00;;;;;;;36.07;23.57;;;;;;;;;;5030357;28;20201;-75
2023/02/15 03:55:27;;;;;;;36.20;23.90;;;;;;;;;;5031978;28;20235;-75
2023/02/15 04:03:47;;;;;;;38.73;23.27;;;;;;;;;;4951355;29;20199;-75
2023/02/15 04:06:14;;;;;;;39.13;23.70;;;;;;;;;;4950618;29;20287;-75
2023/02/15 04:11:34;;;;;;;34.43;21.93;;;;;;;;;;4918115;29;20290;-76
2023/02/15 04:16:02;;;;;;;34.57;22.53;;;;;;;;;;4931958;29;20332;-76
2023/02/15 04:16:49;;;;;;;37.30;21.43;;;;;;;;;;4930982;29;20199;-76
2023/02/15 04:27:30;;;;;;;34.97;21.80;;;;;;;;;;4932262;29;20703;-76
2023/02/15 04:29:58;;;;;;;37.23;21.83;;;;;;;;;;4931171;29;20291;-76
2023/02/15 04:32:26;;;;;;;34.47;22.60;;;;;;;;;;4931951;29;20747;-75
2023/02/15 04:34:53;;;;;;;36.03;22.73;;;;;;;;;;4966192;28;20197;-75
2023/02/15 04:37:21;;;;;;;34.40;21.70;;;;;;;;;;4989231;28;20237;-75
2023/02/15 04:39:49;;;;;;;34.40;21.43;;;;;;;;;;4989693;28;20392;-75
2023/02/15 04:42:16;;;;;;;31.87;21.40;;;;;;;;;;4989722;28;20328;-74
2023/02/15 04:44:44;;;;;;;32.07;21.57;;;;;;;;;;4989925;28;20797;-75
2023/02/15 04:47:12;;;;;;;34.87;22.27;;;;;;;;;;5016217;28;20282;-76
2023/02/15 04:49:39;;;;;;;35.33;21.00;;;;;;;;;;5051204;28;20305;-75
2023/02/15 04:52:07;;;;;;;36.87;21.57;;;;;;;;;;5051499;28;20261;-76
2023/02/15 04:54:34;;;;;;;34.13;21.93;;;;;;;;;;5051022;28;20293;-76
2023/02/15 04:57:01;;;;;;;35.13;22.40;;;;;;;;;;5050790;28;20288;-76
2023/02/15 04:59:28;;;;;;;31.77;21.10;;;;;;;;;;5050538;28;20288;-75
2023/02/15 05:01:55;;;;;;;36.77;22.50;;;;;;;;;;5050808;28;20774;-75
2023/02/15 05:04:24;;;;;;;35.90;22.30;;;;;;;;;;5050324;28;20640;-76
2023/02/15 05:06:51;;;;;;;30.80;22.07;;;;;;;;;;5051115;28;20298;-75
2023/02/15 05:09:18;;;;;;;34.73;21.93;;;;;;;;;;5041765;28;20216;-75
2023/02/15 05:11:45;;;;;;;39.57;27.00;;;;;;;;;;5037288;28;20648;-75
2023/02/15 05:14:13;;;;;;;38.10;26.67;;;;;;;;;;5050295;28;20263;-76
2023/02/15 05:16:40;;;;;;;38.03;25.43;;;;;;;;;;5051002;28;20224;-75
2023/02/15 05:19:07;;;;;;;33.43;22.47;;;;;;;;;;5050629;28;20291;-76
2023/02/15 05:21:36;;;;;;;34.03;22.27;;;;;;;;;;5050639;28;20257;-76
2023/02/15 05:28:19;;;;;;;31.40;21.43;;;;;;;;;;5051000;28;20220;-75
2023/02/15 05:29:35;;;;;;;34.17;20.87;;;;;;;;;;5053679;28;20311;-76
2023/02/15 05:32:03;;;;;;;37.17;22.87;;;;;;;;;;5054217;28;20656;-75
2023/02/15 05:34:31;;;;;;;35.17;21.83;;;;;;;;;;5053950;28;20617;-76
2023/02/15 05:36:59;;;;;;;36.93;21.67;;;;;;;;;;5054783;28;20257;-76
2023/02/15 05:39:26;;;;;;;35.03;22.37;;;;;;;;;;5053902;28;20768;-75
2023/02/15 05:41:54;;;;;;;35.40;21.30;;;;;;;;;;5054051;28;20220;-74
2023/02/15 05:44:21;;;;;;;34.87;21.30;;;;;;;;;;5053400;28;20635;-75
2023/02/15 05:46:48;;;;;;;37.77;22.57;;;;;;;;;;5044886;28;20727;-75
2023/02/15 05:49:15;;;;;;;39.03;21.60;;;;;;;;;;5053515;28;20192;-75
2023/02/15 05:51:42;;;;;;;34.33;22.00;;;;;;;;;;5053929;28;20204;-75
2023/02/15 05:54:11;;;;;;;35.43;21.60;;;;;;;;;;5036257;28;20288;-75
2023/02/15 05:56:38;;;;;;;35.57;22.23;;;;;;;;;;5033934;28;20231;-75
2023/02/15 05:59:05;;;;;;;32.83;21.80;;;;;;;;;;5050313;28;20286;-76
2023/02/15 06:01:32;;;;;;;32.43;22.00;;;;;;;;;;5053700;28;20258;-76
2023/02/15 06:03:59;;;;;;;35.47;22.23;;;;;;;;;;5053035;28;20288;-75
2023/02/15 06:06:27;;;;;;;36.83;21.43;;;;;;;;;;5042005;28;20221;-75
2023/02/15 06:08:54;;;;;;;33.93;21.97;;;;;;;;;;5053303;28;20283;-75
2023/02/15 06:11:22;;;;;;;34.87;22.07;;;;;;;;;;5053358;28;20286;-75
2023/02/15 06:13:49;;;;;;;37.20;22.00;;;;;;;;;;5052682;28;20668;-75
2023/02/15 06:16:18;;;;;;;31.63;21.30;;;;;;;;;;5052132;28;20601;-75
2023/02/15 06:18:45;;;;;;;32.70;21.23;;;;;;;;;;5052371;28;20225;-76
2023/02/15 06:21:12;;;;;;;32.57;21.40;;;;;;;;;;5044682;28;20783;-74
2023/02/15 06:23:39;;;;;;;34.10;21.50;;;;;;;;;;5037331;28;20629;-75
2023/02/15 06:26:07;;;;;;;35.77;21.20;;;;;;;;;;5045783;28;20312;-75
2023/02/15 06:28:37;;;;;;;33.20;21.23;;;;;;;;;;5045633;28;20284;-76
2023/02/15 06:31:05;;;;;;;32.10;22.03;;;;;;;;;;5053066;28;20196;-74
2023/02/15 06:33:33;;;;;;;32.17;20.73;;;;;;;;;;5033355;28;20292;-76
2023/02/15 06:36:01;;;;;;;32.87;21.13;;;;;;;;;;5033102;28;20208;-75
2023/02/15 06:38:28;;;;;;;33.33;20.90;;;;;;;;;;5047285;28;20597;-74
2023/02/15 06:40:55;;;;;;;32.67;21.23;;;;;;;;;;5019627;28;20233;-75
2023/02/15 06:43:23;;;;;;;35.07;21.50;;;;;;;;;;5046603;28;20299;-75
2023/02/15 06:45:51;;;;;;;35.30;21.93;;;;;;;;;;5048011;28;20286;-74
2023/02/15 06:48:18;;;;;;;34.40;21.70;;;;;;;;;;5048888;28;20291;-75
2023/02/15 06:50:45;;;;;;;35.23;22.07;;;;;;;;;;5050137;28;20231;-75
2023/02/15 06:53:13;;;;;;;38.63;22.20;;;;;;;;;;5051433;28;20225;-75
2023/02/15 06:55:40;;;;;;;33.20;21.33;;;;;;;;;;5050129;28;20254;-74
2023/02/15 06:58:07;;;;;;;34.23;21.00;;;;;;;;;;5051296;28;20208;-75
2023/02/15 07:00:34;;;;;;;32.57;21.60;;;;;;;;;;5049928;28;20291;-75
2023/02/15 07:03:04;;;;;;;34.13;21.03;;;;;;;;;;5051565;28;20259;-75
2023/02/15 07:05:34;;;;;;;36.63;21.80;;;;;;;;;;5051041;28;20235;-75
2023/02/15 07:08:01;;;;;;;34.17;20.53;;;;;;;;;;5051335;28;20772;-75
2023/02/15 07:10:29;;;;;;;36.37;21.23;;;;;;;;;;5050319;28;20287;-74
2023/02/15 07:12:55;;;;;;;38.27;22.50;;;;;;;;;;5046200;28;20569;-74
2023/02/15 07:15:22;;;;;;;34.67;21.30;;;;;;;;;;5051956;28;20242;-74
2023/02/15 07:17:50;;;;;;;34.07;21.00;;;;;;;;;;5051356;28;20292;-75
2023/02/15 07:20:19;;;;;;;35.27;21.83;;;;;;;;;;5022806;28;20291;-75
2023/02/15 07:22:46;;;;;;;34.83;21.97;;;;;;;;;;5040229;28;20301;-75
2023/02/15 07:25:14;;;;;;;34.53;21.53;;;;;;;;;;5032652;28;20220;-74
2023/02/15 07:27:41;;;;;;;33.90;22.60;;;;;;;;;;5036005;28;20227;-75
2023/02/15 07:30:10;;;;;;;33.63;21.43;;;;;;;;;;5035638;28;20286;-74
2023/02/15 07:33:22;;;;;;;39.93;23.93;;;;;;;;;;5046574;28;20228;-75
2023/02/15 07:35:25;;;;;;;37.70;23.93;;;;;;;;;;5046532;28;20672;-74
2023/02/15 07:37:53;;;;;;;39.23;23.37;;;;;;;;;;5048105;28;20230;-74
2023/02/15 07:40:23;;;;;;;41.37;23.80;;;;;;;;;;5048572;28;20219;-74
2023/02/15 07:42:51;;;;;;;38.20;23.13;;;;;;;;;;5048901;28;20224;-75
2023/02/15 07:45:18;;;;;;;36.00;22.77;;;;;;;;;;5048718;28;20199;-74
2023/02/15 07:47:45;;;;;;;37.93;23.23;;;;;;;;;;5047936;28;20229;-76
2023/02/15 07:50:13;;;;;;;38.33;24.00;;;;;;;;;;5049638;28;20237;-74
2023/02/15 07:52:41;;;;;;;37.30;22.97;;;;;;;;;;5046212;28;20271;-75
2023/02/15 07:55:12;;;;;;;36.70;22.37;;;;;;;;;;5049046;28;20281;-75
2023/02/15 07:57:42;;;;;;;37.43;22.90;;;;;;;;;;5046062;28;20212;-75
2023/02/15 08:00:11;;;;;;;39.63;23.00;;;;;;;;;;5048568;28;20299;-74
2023/02/15 08:02:38;;;;;;;41.40;24.47;;;;;;;;;;5049792;28;20229;-75
2023/02/15 08:05:06;;;;;;;38.73;25.87;;;;;;;;;;5050108;28;20199;-74
2023/02/15 08:07:33;;;;;;;43.27;25.33;;;;;;;;;;5049667;28;20288;-74
2023/02/15 08:10:02;;;;;;;39.53;24.43;;;;;;;;;;5046645;28;20293;-75
2023/02/15 08:12:29;;;;;;;40.33;24.27;;;;;;;;;;5043413;28;20543;-75
2023/02/15 08:14:56;;;;;;;40.27;24.37;;;;;;;;;;5050920;28;20286;-74
2023/02/15 08:17:23;;;;;;;43.40;23.50;;;;;;;;;;5051603;28;20226;-74
2023/02/15 08:19:50;;;;;;;41.83;24.60;;;;;;;;;;5051179;28;20203;-74
2023/02/15 08:22:18;;;;;;;43.40;25.37;;;;;;;;;;5051414;28;20656;-75
2023/02/15 08:24:45;;;;;;;41.47;24.63;;;;;;;;;;5051177;28;20210;-74
2023/02/15 08:27:13;;;;;;;46.70;25.40;;;;;;;;;;5050652;28;20292;-74
2023/02/15 08:29:41;;;;;;;49.30;25.80;;;;;;;;;;5049957;28;20205;-76
2023/02/15 08:32:11;;;;;;;40.10;25.57;;;;;;;;;;5037383;28;20204;-75
2023/02/15 08:34:40;;;;;;;36.63;25.00;;;;;;;;;;5037804;28;20227;-78
2023/02/15 08:49:30;;;;;;;54.27;36.13;;;;;;;;;;4798484;29;20208;-76
2023/02/15 08:51:58;;;;;;;323.03;165.20;;;;;;;;;;4801564;29;20299;-75
2023/02/15 08:54:25;;;;;;;169.67;90.40;;;;;;;;;;4809952;29;20295;-74
2023/02/15 08:56:52;;;;;;;381.23;188.47;;;;;;;;;;4819233;29;20299;-74
2023/02/15 08:59:20;;;;;;;44.67;32.63;;;;;;;;;;4819692;29;20200;-74
2023/02/15 09:01:48;;;;;;;37.67;27.87;;;;;;;;;;4819493;29;20327;-74
2023/02/15 09:04:15;;;;;;;39.90;31.60;;;;;;;;;;4823476;29;20204;-74
2023/02/15 09:06:44;;;;;;;36.23;29.37;;;;;;;;;;4823404;29;20294;-75
2023/02/15 09:09:12;;;;;;;38.43;29.87;;;;;;;;;;4824552;29;20290;-73
2023/02/15 09:11:40;;;;;;;40.63;28.73;;;;;;;;;;4836310;29;20341;-74
2023/02/15 09:14:09;;;;;;;35.20;26.90;;;;;;;;;;4841169;29;20326;-74
2023/02/15 09:16:37;;;;;;;33.67;27.80;;;;;;;;;;4839353;29;20286;-74
2023/02/15 09:19:04;;;;;;;31.77;25.00;;;;;;;;;;4862894;29;20254;-75
2023/02/15 09:21:32;;;;;;;36.60;28.23;;;;;;;;;;5012567;28;20204;-76
2023/02/15 09:24:02;;;;;;;33.03;27.60;;;;;;;;;;5041366;28;20227;-77
2023/02/15 09:26:30;;;;;;;32.90;27.50;;;;;;;;;;5054021;28;20230;-76
2023/02/15 09:28:58;;;;;;;34.47;27.57;;;;;;;;;;5053592;28;20288;-76
2023/02/15 09:31:26;;;;;;;35.20;27.70;;;;;;;;;;5048652;28;20209;-76
2023/02/15 09:33:53;;;;;;;32.73;23.97;;;;;;;;;;5044993;28;20298;-76
2023/02/15 09:36:22;;;;;;;30.23;24.43;;;;;;;;;;5049622;28;20231;-76
2023/02/15 09:38:53;;;;;;;33.97;24.93;;;;;;;;;;5056675;28;20565;-76
2023/02/15 09:41:33;;;;;;;32.70;25.57;;;;;;;;;;5043538;28;20228;-76
2023/02/15 09:44:04;;;;;;;28.33;24.13;;;;;;;;;;5044043;28;20219;-76
2023/02/15 09:46:45;;;;;;;33.73;24.43;;;;;;;;;;5043768;28;20223;-76
2023/02/15 09:49:19;;;;;;;34.17;25.70;;;;;;;;;;5043988;28;20196;-76
2023/02/15 09:51:58;;;;;;;32.07;25.30;;;;;;;;;;5043804;28;20272;-76
2023/02/15 09:54:34;;;;;;;30.23;23.67;;;;;;;;;;5045684;28;20198;-76
2023/02/15 09:57:06;;;;;;;32.07;23.50;;;;;;;;;;5044686;28;20295;-75
2023/02/15 09:59:36;;;;;;;26.90;20.30;;;;;;;;;;5042979;28;20220;-76
2023/02/15 10:02:12;;;;;;;25.07;20.70;;;;;;;;;;5051838;28;20247;-77
2023/02/15 10:04:50;;;;;;;23.90;18.73;;;;;;;;;;5053309;28;20188;-79
2023/02/15 10:07:23;;;;;;;22.43;17.13;;;;;;;;;;5049172;28;20275;-77
2023/02/15 10:09:57;;;;;;;21.40;17.60;;;;;;;;;;5053021;28;20249;-77
2023/02/15 10:12:39;;;;;;;19.83;16.77;;;;;;;;;;5053692;28;20282;-76
2023/02/15 10:15:12;;;;;;;22.10;17.37;;;;;;;;;;5030603;28;20251;-74
2023/02/15 10:17:45;;;;;;;20.33;17.00;;;;;;;;;;5052383;28;20294;-76
2023/02/15 10:20:18;;;;;;;18.30;15.63;;;;;;;;;;5053867;28;20279;-76
2023/02/15 10:22:56;;;;;;;18.90;15.83;;;;;;;;;;5053738;28;20228;-77
2023/02/15 10:25:30;;;;;;;18.63;16.20;;;;;;;;;;5053029;28;20239;-74
2023/02/15 10:27:58;;;;;;;19.17;16.80;;;;;;;;;;5052977;28;20206;-76
2023/02/15 10:30:31;;;;;;;19.25;16.65;;;;;;;;;;5053240;28;20227;-75
2023/02/15 10:33:01;;;;;;;19.58;16.00;;;;;;;;;;5053114;28;20294;-76
2023/02/15 10:35:32;;;;;;;19.13;16.33;;;;;;;;;;5053373;28;20228;-75
2023/02/15 10:38:05;;;;;;;18.55;15.65;;;;;;;;;;5052375;28;20655;-75
2023/02/15 10:40:37;;;;;;;18.98;14.90;;;;;;;;;;5053256;28;20226;-76
2023/02/15 10:43:26;;;;;;;17.85;14.85;;;;;;;;;;5053451;28;20345;-76
2023/02/15 10:45:58;;;;;;;17.98;15.40;;;;;;;;;;5046805;28;20242;-76
2023/02/15 10:48:36;;;;;;;18.13;15.68;;;;;;;;;;5053047;28;20223;-77
2023/02/15 10:51:05;;;;;;;20.40;16.20;;;;;;;;;;5053082;28;20231;-76
2023/02/15 10:53:50;;;;;;;18.67;16.13;;;;;;;;;;5051313;28;20705;-75
2023/02/15 10:56:21;;;;;;;17.67;15.73;;;;;;;;;;5052756;28;20248;-77
2023/02/15 10:58:55;;;;;;;18.85;16.10;;;;;;;;;;5051223;28;20295;-76
2023/02/15 11:01:26;;;;;;;18.40;15.55;;;;;;;;;;5032737;28;20769;-76
2023/02/15 11:04:06;;;;;;;16.65;14.95;;;;;;;;;;5032687;28;20299;-75
2023/02/15 11:06:35;;;;;;;17.33;14.70;;;;;;;;;;5042950;28;20819;-77
2023/02/15 11:09:03;;;;;;;18.88;15.05;;;;;;;;;;5051384;28;20281;-76
2023/02/15 11:11:32;;;;;;;20.63;16.02;;;;;;;;;;5052502;28;20283;-77
2023/02/15 11:14:01;;;;;;;17.42;15.18;;;;;;;;;;5052201;28;20843;-76
2023/02/15 11:16:31;;;;;;;18.48;16.48;;;;;;;;;;5050439;28;20286;-76
2023/02/15 11:19:00;;;;;;;16.92;15.15;;;;;;;;;;5051813;28;20312;-77
2023/02/15 11:21:28;;;;;;;17.42;15.38;;;;;;;;;;5051537;28;20736;-77
2023/02/15 11:23:56;;;;;;;16.67;14.93;;;;;;;;;;5050586;28;20322;-78
2023/02/15 11:26:28;;;;;;;19.92;15.68;;;;;;;;;;5051672;28;20223;-76
2023/02/15 11:28:58;;;;;;;17.25;15.38;;;;;;;;;;5050879;28;20200;-75
2023/02/15 11:31:27;;;;;;;16.85;15.10;;;;;;;;;;5052045;28;20287;-76
2023/02/15 11:33:57;;;;;;;17.83;15.93;;;;;;;;;;5052000;28;20196;-76
2023/02/15 11:36:27;;;;;;;18.10;16.20;;;;;;;;;;5052097;28;20286;-76
2023/02/15 11:38:58;;;;;;;19.33;17.25;;;;;;;;;;5052255;28;20269;-75
2023/02/15 11:41:28;;;;;;;19.17;16.58;;;;;;;;;;5052168;28;20253;-76
2023/02/15 11:44:00;;;;;;;19.05;16.67;;;;;;;;;;5051607;28;20232;-75
2023/02/15 11:46:28;;;;;;;21.02;16.83;;;;;;;;;;5051925;28;20202;-77
2023/02/15 11:48:58;;;;;;;18.60;16.65;;;;;;;;;;5051561;28;20234;-76
2023/02/15 11:51:26;;;;;;;19.55;16.15;;;;;;;;;;5051365;28;20202;-78
2023/02/15 11:53:54;;;;;;;18.90;16.08;;;;;;;;;;5051922;28;20196;-77
2023/02/15 11:56:22;;;;;;;19.33;16.83;;;;;;;;;;5051664;28;20234;-76
2023/02/15 11:58:52;;;;;;;18.30;16.50;;;;;;;;;;5051458;28;20203;-77
2023/02/15 12:01:24;;;;;;;19.67;16.38;;;;;;;;;;5050897;28;20254;-77
2023/02/15 12:03:52;;;;;;;20.23;16.38;;;;;;;;;;5051424;28;20234;-78
2023/02/15 12:06:25;;;;;;;20.48;17.80;;;;;;;;;;5051523;28;20262;-77
2023/02/15 12:08:55;;;;;;;20.15;17.27;;;;;;;;;;5050991;28;20739;-78
2023/02/15 12:11:26;;;;;;;23.10;18.02;;;;;;;;;;5051255;28;20287;-77
2023/02/15 12:13:57;;;;;;;19.48;17.38;;;;;;;;;;5051555;28;20235;-76
2023/02/15 12:16:24;;;;;;;20.90;17.42;;;;;;;;;;5051123;28;20223;-77
2023/02/15 12:18:53;;;;;;;18.92;16.67;;;;;;;;;;5051153;28;20275;-77
2023/02/15 12:21:27;;;;;;;20.33;17.80;;;;;;;;;;5050605;28;20295;-76
2023/02/15 12:23:59;;;;;;;19.73;17.40;;;;;;;;;;5050292;28;20319;-77
2023/02/15 12:26:27;;;;;;;20.75;18.55;;;;;;;;;;5051541;28;20287;-76
2023/02/15 12:28:57;;;;;;;21.40;19.10;;;;;;;;;;5050706;28;20200;-76
2023/02/15 12:31:27;;;;;;;20.77;18.33;;;;;;;;;;5049945;28;20609;-75
2023/02/15 12:33:56;;;;;;;19.25;17.02;;;;;;;;;;5048200;28;20277;-76
2023/02/15 12:36:26;;;;;;;21.55;18.83;;;;;;;;;;5050648;28;20249;-75
2023/02/15 12:39:19;;;;;;;18.85;16.90;;;;;;;;;;5049596;28;20203;-77
2023/02/15 12:41:47;;;;;;;19.10;16.83;;;;;;;;;;5046502;28;20196;-76
2023/02/15 12:44:18;;;;;;;20.83;18.42;;;;;;;;;;5036318;28;20777;-76
2023/02/15 12:46:57;;;;;;;19.80;17.70;;;;;;;;;;5039295;28;20195;-76
2023/02/15 12:49:24;;;;;;;20.05;17.95;;;;;;;;;;5048970;28;20196;-77
2023/02/15 12:51:53;;;;;;;19.85;17.75;;;;;;;;;;5050361;28;20279;-77
2023/02/15 12:54:34;;;;;;;21.10;18.50;;;;;;;;;;5051294;28;20242;-78
2023/02/15 12:57:13;;;;;;;21.42;18.60;;;;;;;;;;5042510;28;20265;-77
2023/02/15 12:59:49;;;;;;;22.70;17.55;;;;;;;;;;5050358;28;20235;-75
2023/02/15 13:02:21;;;;;;;21.23;17.85;;;;;;;;;;5049168;28;20257;-78
2023/02/15 13:04:50;;;;;;;22.10;18.98;;;;;;;;;;5049642;28;20219;-77
2023/02/15 13:07:17;;;;;;;19.77;17.58;;;;;;;;;;5048825;28;20231;-78
2023/02/15 13:09:46;;;;;;;23.27;18.98;;;;;;;;;;5048513;28;20287;-77
2023/02/15 13:12:18;;;;;;;21.27;18.88;;;;;;;;;;5051526;28;20243;-76
2023/02/15 13:14:46;;;;;;;19.85;17.75;;;;;;;;;;5050374;28;20227;-76
2023/02/15 13:17:15;;;;;;;20.33;18.17;;;;;;;;;;5050452;28;20286;-77
2023/02/15 13:19:44;;;;;;;22.13;19.35;;;;;;;;;;5050946;28;20702;-78
2023/02/15 13:22:14;;;;;;;22.55;19.38;;;;;;;;;;5051003;28;20287;-78
2023/02/15 13:24:44;;;;;;;22.60;19.08;;;;;;;;;;5050592;28;20327;-78
2023/02/15 13:27:15;;;;;;;19.73;17.63;;;;;;;;;;5050816;28;20219;-78
2023/02/15 13:29:45;;;;;;;19.60;17.42;;;;;;;;;;5050777;28;20743;-78
2023/02/15 13:32:18;;;;;;;19.58;17.48;;;;;;;;;;5050574;28;20195;-78
2023/02/15 13:34:45;;;;;;;19.58;16.92;;;;;;;;;;5051608;28;20227;-78
2023/02/15 13:37:17;;;;;;;20.98;18.70;;;;;;;;;;5048409;28;20200;-78
2023/02/15 13:39:48;;;;;;;20.75;18.17;;;;;;;;;;5050032;28;20206;-78
2023/02/15 13:42:22;;;;;;;22.42;19.20;;;;;;;;;;5048610;28;20806;-78
2023/02/15 13:44:56;;;;;;;22.15;19.75;;;;;;;;;;5044759;28;20224;-78
2023/02/15 13:47:28;;;;;;;23.42;18.75;;;;;;;;;;5046375;28;20576;-78
2023/02/15 13:50:09;;;;;;;22.15;19.55;;;;;;;;;;5051842;28;20292;-77
2023/02/15 13:52:41;;;;;;;24.48;20.40;;;;;;;;;;5041962;28;20227;-78
2023/02/15 13:55:17;;;;;;;21.20;19.00;;;;;;;;;;5053795;28;20675;-79
2023/02/15 13:57:57;;;;;;;24.63;19.48;;;;;;;;;;5054055;28;20321;-77
2023/02/15 14:00:27;;;;;;;20.60;18.35;;;;;;;;;;5048399;28;20196;-78
2023/02/15 14:03:07;;;;;;;25.42;19.08;;;;;;;;;;5048654;28;20200;-79
2023/02/15 14:05:41;;;;;;;22.73;18.67;;;;;;;;;;5052070;28;20680;-78
2023/02/15 14:08:13;;;;;;;22.35;19.20;;;;;;;;;;5053779;28;20285;-78
2023/02/15 14:10:45;;;;;;;23.13;18.65;;;;;;;;;;5053488;28;20711;-79
2023/02/15 14:13:36;;;;;;;22.10;18.73;;;;;;;;;;5054383;28;20314;-79
2023/02/15 14:16:05;;;;;;;23.05;18.73;;;;;;;;;;5045733;28;20653;-79
2023/02/15 14:18:37;;;;;;;22.73;18.95;;;;;;;;;;5042731;28;20266;-79
2023/02/15 14:21:07;;;;;;;22.60;18.13;;;;;;;;;;5048039;28;20687;-79
2023/02/15 14:23:43;;;;;;;23.17;18.67;;;;;;;;;;5053820;28;20255;-79
2023/02/15 14:26:13;;;;;;;21.90;19.00;;;;;;;;;;5052926;28;20721;-78
2023/02/15 14:28:47;;;;;;;22.90;17.92;;;;;;;;;;5053526;28;20227;-80
2023/02/15 14:31:15;;;;;;;20.27;17.27;;;;;;;;;;5052943;28;20211;-78
2023/02/15 14:33:45;;;;;;;21.80;16.52;;;;;;;;;;5053502;28;20200;-79
2023/02/15 14:36:15;;;;;;;21.98;17.95;;;;;;;;;;5053569;28;20618;-80
2023/02/15 14:38:52;;;;;;;23.63;18.80;;;;;;;;;;5053282;28;20274;-79
2023/02/15 14:41:20;;;;;;;22.40;18.42;;;;;;;;;;5053512;28;20211;-80
2023/02/15 14:43:52;;;;;;;23.15;18.65;;;;;;;;;;5053079;28;20586;-79
2023/02/15 14:46:24;;;;;;;23.23;18.65;;;;;;;;;;5052960;28;20656;-80
2023/02/15 14:48:53;;;;;;;21.65;18.27;;;;;;;;;;5053061;28;20231;-80
2023/02/15 14:51:39;;;;;;;23.17;18.42;;;;;;;;;;5052846;28;20675;-80
2023/02/15 14:54:06;;;;;;;21.60;18.60;;;;;;;;;;5052838;28;20235;-79
2023/02/15 14:56:33;;;;;;;23.50;17.75;;;;;;;;;;5052901;28;20192;-79
2023/02/15 14:59:13;;;;;;;19.63;16.90;;;;;;;;;;5052571;28;20691;-79
2023/02/15 15:01:41;;;;;;;19.70;16.88;;;;;;;;;;5052502;28;20234;-79
2023/02/15 15:04:10;;;;;;;20.35;16.08;;;;;;;;;;5053179;28;20240;-79
2023/02/15 15:06:38;;;;;;;18.45;15.63;;;;;;;;;;5052963;28;20246;-78